createdAt,value
2017-10-29T00:00:15.783Z,20.30
2017-10-29T00:02:47.009Z,20.30
2017-10-29T00:05:18.276Z,20.30
2017-10-29T00:07:49.545Z,20.30
2017-10-29T00:10:20.803Z,20.30
2017-10-29T00:12:52.021Z,20.30
2017-10-29T00:15:23.328Z,20.30
2017-10-29T00:17:55.336Z,20.30
2017-10-29T00:20:26.560Z,20.20
2017-10-29T00:22:57.823Z,20.20
2017-10-29T00:25:29.073Z,20.20
2017-10-29T00:28:00.308Z,20.30
2017-10-29T00:30:31.525Z,20.20
2017-10-29T00:33:03.534Z,20.20
2017-10-29T00:35:34.784Z,20.20
2017-10-29T00:38:06.024Z,20.20
2017-10-29T00:40:37.281Z,20.20
2017-10-29T00:43:08.530Z,20.20
2017-10-29T00:45:39.785Z,20.20
2017-10-29T00:48:11.044Z,20.20
2017-10-29T00:50:42.269Z,20.20
2017-10-29T00:53:13.524Z,20.20
2017-10-29T00:55:44.744Z,20.20
2017-10-29T00:58:15.984Z,20.20
2017-10-29T01:00:47.218Z,20.20
2017-10-29T01:03:18.484Z,20.20
2017-10-29T01:05:49.744Z,20.20
2017-10-29T01:08:21.017Z,20.20
2017-10-29T01:10:52.283Z,20.20
2017-10-29T01:13:23.516Z,20.10
2017-10-29T01:15:54.772Z,20.10
2017-10-29T01:18:26.755Z,20.10
2017-10-29T01:20:58.774Z,20.10
2017-10-29T01:23:30.005Z,20.10
2017-10-29T01:26:01.251Z,20.10
2017-10-29T01:28:32.490Z,20.10
2017-10-29T01:31:03.753Z,20.10
2017-10-29T01:33:34.988Z,20.10
2017-10-29T01:36:06.244Z,20.10
2017-10-29T01:38:37.488Z,20.10
2017-10-29T01:41:08.925Z,20.10
2017-10-29T01:43:40.148Z,20.10
2017-10-29T01:46:12.182Z,20.10
2017-10-29T01:48:43.464Z,20.00
2017-10-29T01:51:14.723Z,20.10
2017-10-29T01:53:45.963Z,20.10
2017-10-29T01:56:17.220Z,20.00
2017-10-29T01:58:48.465Z,20.00
2017-10-29T02:01:19.708Z,20.00
2017-10-29T02:03:50.963Z,20.00
2017-10-29T02:06:22.185Z,20.00
2017-10-29T02:08:54.264Z,20.00
2017-10-29T02:11:25.519Z,20.00
2017-10-29T02:13:56.844Z,20.00
2017-10-29T02:16:28.845Z,20.00
2017-10-29T02:19:00.105Z,20.00
2017-10-29T02:21:31.640Z,20.00
2017-10-29T02:24:02.903Z,20.00
2017-10-29T02:26:34.152Z,20.00
2017-10-29T02:29:05.400Z,20.00
2017-10-29T02:31:36.628Z,20.00
2017-10-29T02:34:07.904Z,20.00
2017-10-29T02:36:39.126Z,20.00
2017-10-29T02:39:10.364Z,20.00
2017-10-29T02:41:41.584Z,20.00
2017-10-29T02:44:13.622Z,20.00
2017-10-29T02:46:44.849Z,19.90
2017-10-29T02:49:16.097Z,20.00
2017-10-29T02:51:47.342Z,20.00
2017-10-29T02:54:18.565Z,20.00
2017-10-29T02:56:49.818Z,19.90
2017-10-29T02:59:21.056Z,19.90
2017-10-29T03:01:52.291Z,19.90
2017-10-29T03:04:23.521Z,19.90
2017-10-29T03:06:55.528Z,19.90
2017-10-29T03:09:26.746Z,19.90
2017-10-29T03:11:57.985Z,19.90
2017-10-29T03:14:29.979Z,19.90
2017-10-29T03:17:01.236Z,19.90
2017-10-29T03:19:32.482Z,19.90
2017-10-29T03:22:03.733Z,19.90
2017-10-29T03:24:34.957Z,19.90
2017-10-29T03:27:06.217Z,19.90
2017-10-29T03:29:37.480Z,19.80
2017-10-29T03:32:08.724Z,19.90
2017-10-29T03:34:39.964Z,19.90
2017-10-29T03:37:11.216Z,19.90
2017-10-29T03:39:42.444Z,19.80
2017-10-29T03:42:13.703Z,19.90
2017-10-29T03:44:44.963Z,19.90
2017-10-29T03:47:16.215Z,19.90
2017-10-29T03:49:47.592Z,19.80
2017-10-29T03:52:18.820Z,19.90
2017-10-29T03:54:50.075Z,19.80
2017-10-29T03:57:21.328Z,19.80
2017-10-29T03:59:52.547Z,19.80
2017-10-29T04:02:23.793Z,19.80
2017-10-29T04:04:55.062Z,19.80
2017-10-29T04:07:26.338Z,19.80
2017-10-29T04:09:58.336Z,19.80
2017-10-29T04:12:29.591Z,19.80
2017-10-29T04:15:00.844Z,19.80
2017-10-29T04:17:32.084Z,19.80
2017-10-29T04:20:03.329Z,19.80
2017-10-29T04:22:34.572Z,19.80
2017-10-29T04:25:05.823Z,19.80
2017-10-29T04:27:37.044Z,19.80
2017-10-29T04:30:08.295Z,19.80
2017-10-29T04:32:39.523Z,19.80
2017-10-29T04:35:11.549Z,19.80
2017-10-29T04:37:42.782Z,19.80
2017-10-29T04:40:14.044Z,19.80
2017-10-29T04:42:45.268Z,19.80
2017-10-29T04:45:16.505Z,19.80
2017-10-29T04:47:47.753Z,19.80
2017-10-29T04:50:19.001Z,19.80
2017-10-29T04:52:50.236Z,19.80
2017-10-29T04:55:21.448Z,19.80
2017-10-29T04:57:53.465Z,19.80
2017-10-29T05:00:24.779Z,19.80
2017-10-29T05:02:56.025Z,19.80
2017-10-29T05:05:28.024Z,19.80
2017-10-29T05:07:59.281Z,19.80
2017-10-29T05:10:30.505Z,19.80
2017-10-29T05:13:01.754Z,19.80
2017-10-29T05:15:32.971Z,19.80
2017-10-29T05:18:04.978Z,19.80
2017-10-29T05:20:36.200Z,19.80
2017-10-29T05:23:07.448Z,19.80
2017-10-29T05:25:38.687Z,19.80
2017-10-29T05:28:09.933Z,19.80
2017-10-29T05:30:41.164Z,19.80
2017-10-29T05:33:13.178Z,19.80
2017-10-29T05:35:44.397Z,19.70
2017-10-29T05:38:15.643Z,19.80
2017-10-29T05:40:46.900Z,19.70
2017-10-29T05:43:18.129Z,19.80
2017-10-29T05:45:49.381Z,19.70
2017-10-29T05:48:20.614Z,19.70
2017-10-29T05:50:52.640Z,19.70
2017-10-29T05:53:23.872Z,19.70
2017-10-29T05:55:55.109Z,19.70
2017-10-29T05:58:26.336Z,19.70
2017-10-29T06:00:57.589Z,19.70
2017-10-29T06:03:28.805Z,19.70
2017-10-29T06:06:00.808Z,19.70
2017-10-29T06:08:32.021Z,19.70
2017-10-29T06:11:03.285Z,19.70
2017-10-29T06:13:34.526Z,19.70
2017-10-29T06:16:05.785Z,19.70
2017-10-29T06:18:37.049Z,19.70
2017-10-29T06:21:08.269Z,19.70
2017-10-29T06:23:39.525Z,19.70
2017-10-29T06:26:10.772Z,19.70
2017-10-29T06:28:42.015Z,19.70
2017-10-29T06:31:13.236Z,19.70
2017-10-29T06:33:45.271Z,19.70
2017-10-29T06:36:16.503Z,19.70
2017-10-29T06:38:47.750Z,19.70
2017-10-29T06:41:18.994Z,19.70
2017-10-29T06:43:50.282Z,19.70
2017-10-29T06:46:22.272Z,19.80
2017-10-29T06:48:53.532Z,19.80
2017-10-29T06:51:24.753Z,19.90
2017-10-29T06:53:56.767Z,20.00
2017-10-29T06:56:28.009Z,20.00
2017-10-29T06:58:59.254Z,20.10
2017-10-29T07:01:30.505Z,20.10
2017-10-29T07:04:01.740Z,20.20
2017-10-29T07:06:33.009Z,20.20
2017-10-29T07:09:04.260Z,20.20
2017-10-29T07:11:35.492Z,20.30
2017-10-29T07:14:06.733Z,20.30
2017-10-29T07:16:37.957Z,20.40
2017-10-29T07:19:09.228Z,20.40
2017-10-29T07:21:40.484Z,20.40
2017-10-29T07:24:11.738Z,20.40
2017-10-29T07:26:43.014Z,20.50
2017-10-29T07:29:15.009Z,20.50
2017-10-29T07:31:46.255Z,20.50
2017-10-29T07:34:17.496Z,20.60
2017-10-29T07:36:48.744Z,20.60
2017-10-29T07:39:19.964Z,20.70
2017-10-29T07:41:51.982Z,20.70
2017-10-29T07:44:23.217Z,20.70
2017-10-29T07:46:54.486Z,20.70
2017-10-29T07:49:25.732Z,20.70
2017-10-29T07:51:57.000Z,20.70
2017-10-29T07:54:28.234Z,20.60
2017-10-29T07:56:59.500Z,20.60
2017-10-29T07:59:30.736Z,20.60
2017-10-29T08:02:02.027Z,20.60
2017-10-29T08:04:33.273Z,20.50
2017-10-29T08:07:04.531Z,20.50
2017-10-29T08:09:36.360Z,20.50
2017-10-29T08:12:08.357Z,20.50
2017-10-29T08:14:39.608Z,20.40
2017-10-29T08:17:10.837Z,20.40
2017-10-29T08:19:42.856Z,20.10
2017-10-29T08:22:14.112Z,20.10
2017-10-29T08:24:45.360Z,20.00
2017-10-29T08:27:16.607Z,20.00
2017-10-29T08:29:47.853Z,20.10
2017-10-29T08:32:19.121Z,20.10
2017-10-29T08:34:50.345Z,20.10
2017-10-29T08:37:21.613Z,20.10
2017-10-29T08:39:53.625Z,20.10
2017-10-29T08:42:24.880Z,20.00
2017-10-29T08:44:56.124Z,20.10
2017-10-29T08:47:27.420Z,20.10
2017-10-29T08:49:59.450Z,20.20
2017-10-29T08:52:30.724Z,20.20
2017-10-29T08:55:02.713Z,20.40
2017-10-29T08:57:33.961Z,20.30
2017-10-29T09:00:05.206Z,20.50
2017-10-29T09:02:36.557Z,20.70
2017-10-29T09:05:07.804Z,20.80
2017-10-29T09:07:39.027Z,20.80
2017-10-29T09:10:11.068Z,20.90
2017-10-29T09:12:42.336Z,20.90
2017-10-29T09:15:14.366Z,20.90
2017-10-29T09:17:45.625Z,20.90
2017-10-29T09:20:16.872Z,20.90
2017-10-29T09:22:48.112Z,20.80
2017-10-29T09:25:20.103Z,20.80
2017-10-29T09:27:51.351Z,20.80
2017-10-29T09:30:22.604Z,20.80
2017-10-29T09:32:54.639Z,20.80
2017-10-29T09:35:25.925Z,20.80
2017-10-29T09:37:57.949Z,20.80
2017-10-29T09:40:29.358Z,20.70
2017-10-29T09:43:00.603Z,20.70
2017-10-29T09:45:32.485Z,20.70
2017-10-29T09:48:03.751Z,20.70
2017-10-29T09:50:38.195Z,20.80
2017-10-29T09:53:10.077Z,20.80
2017-10-29T09:55:42.078Z,20.70
2017-10-29T09:58:13.355Z,20.70
2017-10-29T10:00:44.604Z,20.80
2017-10-29T10:03:15.857Z,20.80
2017-10-29T10:05:47.119Z,20.90
2017-10-29T10:08:18.412Z,20.90
2017-10-29T10:10:49.652Z,20.90
2017-10-29T10:13:20.909Z,20.80
2017-10-29T10:15:52.168Z,20.90
2017-10-29T10:18:23.418Z,20.80
2017-10-29T10:20:54.674Z,20.80
2017-10-29T10:23:25.903Z,20.80
2017-10-29T10:25:57.207Z,20.80
2017-10-29T10:28:29.231Z,20.90
2017-10-29T10:31:00.469Z,20.90
2017-10-29T10:33:31.731Z,20.90
2017-10-29T10:36:03.004Z,21.00
2017-10-29T10:38:34.269Z,21.00
2017-10-29T10:41:05.523Z,21.00
2017-10-29T10:43:36.775Z,21.00
2017-10-29T10:46:08.041Z,21.00
2017-10-29T10:48:39.315Z,21.00
2017-10-29T10:51:10.564Z,20.90
2017-10-29T10:53:41.810Z,21.00
2017-10-29T10:56:13.073Z,21.00
2017-10-29T10:58:44.327Z,21.00
2017-10-29T11:01:16.327Z,21.00
2017-10-29T11:03:47.584Z,21.00
2017-10-29T11:06:18.832Z,21.10
2017-10-29T11:08:50.089Z,21.10
2017-10-29T11:11:21.333Z,21.10
2017-10-29T11:13:52.584Z,21.10
2017-10-29T11:16:23.834Z,21.10
2017-10-29T11:18:55.066Z,21.10
2017-10-29T11:21:26.316Z,21.10
2017-10-29T11:23:57.584Z,21.10
2017-10-29T11:26:28.825Z,21.00
2017-10-29T11:29:00.110Z,21.00
2017-10-29T11:31:32.141Z,21.00
2017-10-29T11:34:03.385Z,21.00
2017-10-29T11:36:34.658Z,21.00
2017-10-29T11:39:06.183Z,21.00
2017-10-29T11:41:37.462Z,21.00
2017-10-29T11:44:08.727Z,21.00
2017-10-29T11:46:40.752Z,21.00
2017-10-29T11:49:11.988Z,21.00
2017-10-29T11:51:43.274Z,21.00
2017-10-29T11:54:15.307Z,21.00
2017-10-29T11:56:46.587Z,21.00
2017-10-29T11:59:17.833Z,21.10
2017-10-29T12:01:49.883Z,21.10
2017-10-29T12:04:21.132Z,21.00
2017-10-29T12:06:52.432Z,21.00
2017-10-29T12:09:23.691Z,21.00
2017-10-29T12:11:54.962Z,21.00
2017-10-29T12:14:26.210Z,21.00
2017-10-29T12:16:57.509Z,21.00
2017-10-29T12:19:28.763Z,21.10
2017-10-29T12:22:01.167Z,21.10
2017-10-29T12:24:32.426Z,21.10
2017-10-29T12:27:03.675Z,21.20
2017-10-29T12:29:34.923Z,21.20
2017-10-29T12:32:06.165Z,21.20
2017-10-29T12:34:37.425Z,21.20
2017-10-29T12:37:08.699Z,21.20
2017-10-29T12:39:39.960Z,21.20
2017-10-29T12:42:11.978Z,21.10
2017-10-29T12:44:43.243Z,21.10
2017-10-29T12:47:14.534Z,21.10
2017-10-29T12:49:46.570Z,21.10
2017-10-29T12:52:17.857Z,21.00
2017-10-29T12:54:49.115Z,21.00
2017-10-29T12:57:20.388Z,21.00
2017-10-29T12:59:51.709Z,21.00
2017-10-29T13:02:22.996Z,21.00
2017-10-29T13:04:54.249Z,21.00
2017-10-29T13:07:25.509Z,21.00
2017-10-29T13:09:56.778Z,20.90
2017-10-29T13:12:28.795Z,20.80
2017-10-29T13:15:00.043Z,20.80
2017-10-29T13:17:31.339Z,20.80
2017-10-29T13:20:02.594Z,20.80
2017-10-29T13:22:33.839Z,20.80
2017-10-29T13:25:05.093Z,20.90
2017-10-29T13:27:36.333Z,20.90
2017-10-29T13:30:07.568Z,20.90
2017-10-29T13:32:38.814Z,21.00
2017-10-29T13:35:10.830Z,21.00
2017-10-29T13:37:42.154Z,21.00
2017-10-29T13:40:13.427Z,21.00
2017-10-29T13:42:44.690Z,21.00
